Time;durP1;ratioP1;P1;durP2;ratioP2;P2;SDS_P1;SDS_P2;PMS_P1;PMS_P2;Temp;Humidity;BMP_temperature;BMP_pressure;BME280_temperature;BME280_humidity;BME280_pressure;Samples;Min_cycle;Max_cycle;Signal;HPM_P1;HPM_P2
2022/06/09 00:01:14;;;;;;;0.90;0.50;;;;;;;;;;5054678;28;20863;-87
2022/06/09 00:03:44;;;;;;;1.25;0.50;;;;;;;;;;5054537;28;20400;-87
2022/06/09 00:06:10;;;;;;;1.30;0.43;;;;;;;;;;5055294;28;20438;-87
2022/06/09 00:08:36;;;;;;;1.55;0.50;;;;;;;;;;5055060;28;20791;-87
2022/06/09 00:11:06;;;;;;;1.20;0.65;;;;;;;;;;5054428;28;20389;-87
2022/06/09 00:13:33;;;;;;;1.55;0.60;;;;;;;;;;5054600;28;20374;-87
2022/06/09 00:16:00;;;;;;;0.88;0.60;;;;;;;;;;5054265;28;20406;-87
2022/06/09 00:18:26;;;;;;;2.63;0.50;;;;;;;;;;5054315;28;20739;-87
2022/06/09 00:20:52;;;;;;;0.68;0.50;;;;;;;;;;5053985;28;20381;-87
2022/06/09 00:23:18;;;;;;;2.25;0.63;;;;;;;;;;5054362;28;20461;-86
2022/06/09 00:25:45;;;;;;;0.93;0.60;;;;;;;;;;5054394;28;20373;-87
2022/06/09 00:28:11;;;;;;;0.70;0.60;;;;;;;;;;5054256;28;20401;-87
2022/06/09 00:30:37;;;;;;;0.85;0.70;;;;;;;;;;5053963;28;20387;-87
2022/06/09 00:33:03;;;;;;;1.45;0.45;;;;;;;;;;5054123;28;20393;-87
2022/06/09 00:35:29;;;;;;;1.10;0.45;;;;;;;;;;5050775;28;20406;-87
2022/06/09 00:37:55;;;;;;;1.40;0.40;;;;;;;;;;5048700;28;20393;-87
2022/06/09 00:40:22;;;;;;;1.90;0.70;;;;;;;;;;5053785;28;20459;-86
2022/06/09 00:42:48;;;;;;;1.20;0.50;;;;;;;;;;5054137;28;20377;-87
2022/06/09 00:45:28;;;;;;;1.90;0.60;;;;;;;;;;5053656;28;20381;-86
2022/06/09 00:47:59;;;;;;;0.70;0.60;;;;;;;;;;5053910;28;20381;-86
2022/06/09 00:50:27;;;;;;;0.60;0.50;;;;;;;;;;5054042;28;20854;-87
2022/06/09 00:52:55;;;;;;;1.38;0.70;;;;;;;;;;5053706;28;20400;-87
2022/06/09 00:55:23;;;;;;;0.63;0.60;;;;;;;;;;5035641;28;20755;-87
2022/06/09 00:57:55;;;;;;;1.40;0.65;;;;;;;;;;5053691;28;20406;-87
2022/06/09 01:00:23;;;;;;;2.22;0.65;;;;;;;;;;5053807;28;20381;-88
2022/06/09 01:02:50;;;;;;;1.30;0.70;;;;;;;;;;5053512;28;20416;-87
2022/06/09 01:05:18;;;;;;;0.85;0.60;;;;;;;;;;5053826;28;20393;-88
2022/06/09 01:07:47;;;;;;;0.75;0.60;;;;;;;;;;5053736;28;20468;-89
2022/06/09 01:10:13;;;;;;;0.65;0.52;;;;;;;;;;5050179;28;20867;-88
2022/06/09 01:12:43;;;;;;;0.50;0.50;;;;;;;;;;5055172;28;20387;-87
2022/06/09 01:15:17;;;;;;;1.17;0.50;;;;;;;;;;5055882;28;20374;-87
2022/06/09 01:17:52;;;;;;;0.52;0.50;;;;;;;;;;5053376;28;20444;-87
2022/06/09 01:20:20;;;;;;;0.60;0.52;;;;;;;;;;5053362;28;20380;-88
2022/06/09 01:22:52;;;;;;;1.35;0.50;;;;;;;;;;5053123;28;20431;-86
2022/06/09 01:25:37;;;;;;;3.65;0.73;;;;;;;;;;5049603;28;20378;-88
2022/06/09 01:28:06;;;;;;;1.00;0.60;;;;;;;;;;5053254;28;20377;-87
2022/06/09 01:30:51;;;;;;;2.35;0.80;;;;;;;;;;5035384;28;20374;-87
2022/06/09 01:33:16;;;;;;;0.85;0.60;;;;;;;;;;5053088;28;20476;-85
2022/06/09 01:35:47;;;;;;;0.63;0.50;;;;;;;;;;5047995;28;20474;-87
2022/06/09 01:38:13;;;;;;;1.17;0.63;;;;;;;;;;5051019;28;20381;-87
2022/06/09 01:40:39;;;;;;;0.70;0.68;;;;;;;;;;5053242;28;20385;-88
2022/06/09 01:43:06;;;;;;;1.50;0.60;;;;;;;;;;5034937;28;20712;-88
2022/06/09 01:45:45;;;;;;;0.70;0.50;;;;;;;;;;5052396;28;20414;-87
2022/06/09 01:48:18;;;;;;;1.48;0.55;;;;;;;;;;5035572;28;20386;-88
2022/06/09 01:50:51;;;;;;;1.63;0.55;;;;;;;;;;5035501;28;20386;-88
2022/06/09 01:53:20;;;;;;;0.63;0.55;;;;;;;;;;5044184;28;20370;-87
2022/06/09 01:55:49;;;;;;;0.95;0.80;;;;;;;;;;5053036;28;20378;-87
2022/06/09 01:58:18;;;;;;;0.82;0.43;;;;;;;;;;5049577;28;20413;-88
2022/06/09 02:00:44;;;;;;;0.88;0.50;;;;;;;;;;5052957;28;20817;-89
2022/06/09 02:03:13;;;;;;;1.25;0.73;;;;;;;;;;5052638;28;20917;-87
2022/06/09 02:05:42;;;;;;;1.70;0.50;;;;;;;;;;5052956;28;20735;-86
2022/06/09 02:08:09;;;;;;;0.95;0.70;;;;;;;;;;5053276;28;20389;-88
2022/06/09 02:10:37;;;;;;;2.30;0.70;;;;;;;;;;5053122;28;20427;-88
2022/06/09 02:13:08;;;;;;;1.63;0.70;;;;;;;;;;5053051;28;20374;-88
2022/06/09 02:15:40;;;;;;;0.75;0.60;;;;;;;;;;5052888;28;20485;-89
2022/06/09 02:18:08;;;;;;;1.67;0.70;;;;;;;;;;5052872;28;20384;-89
2022/06/09 02:20:34;;;;;;;1.50;0.77;;;;;;;;;;5053668;28;20713;-88
2022/06/09 02:23:01;;;;;;;1.00;0.80;;;;;;;;;;5053994;28;20374;-87
2022/06/09 02:25:27;;;;;;;1.20;0.80;;;;;;;;;;5052950;28;20386;-88
2022/06/09 02:27:53;;;;;;;1.00;0.90;;;;;;;;;;5048813;28;20405;-88
2022/06/09 02:30:20;;;;;;;1.73;0.90;;;;;;;;;;5045389;28;20887;-88
2022/06/09 02:32:46;;;;;;;1.92;0.90;;;;;;;;;;5048101;28;20406;-88
2022/06/09 02:35:12;;;;;;;1.42;0.93;;;;;;;;;;5058483;28;20383;-88
2022/06/09 02:37:38;;;;;;;1.02;1.00;;;;;;;;;;5043679;28;20401;-87
2022/06/09 02:40:04;;;;;;;1.40;1.00;;;;;;;;;;5051731;28;20468;-88
2022/06/09 02:42:30;;;;;;;0.80;0.80;;;;;;;;;;5053084;28;20878;-86
2022/06/09 02:44:56;;;;;;;1.00;1.00;;;;;;;;;;5053460;28;20875;-87
2022/06/09 02:47:22;;;;;;;1.33;1.08;;;;;;;;;;5052575;28;20382;-87
2022/06/09 02:49:48;;;;;;;0.98;0.90;;;;;;;;;;5052831;28;20874;-87
2022/06/09 02:52:14;;;;;;;1.17;1.08;;;;;;;;;;5034976;28;20476;-87
2022/06/09 02:54:40;;;;;;;1.30;1.20;;;;;;;;;;5052573;28;20381;-87
2022/06/09 02:57:06;;;;;;;1.45;1.30;;;;;;;;;;5053625;28;20523;-88
2022/06/09 02:59:32;;;;;;;2.22;1.45;;;;;;;;;;5056469;28;20373;-87
2022/06/09 03:01:58;;;;;;;1.30;1.20;;;;;;;;;;5051057;28;20398;-87
2022/06/09 03:04:24;;;;;;;1.35;1.25;;;;;;;;;;5038150;28;20398;-87
2022/06/09 03:06:50;;;;;;;2.05;1.33;;;;;;;;;;5036008;28;20445;-88
2022/06/09 03:09:16;;;;;;;2.28;1.48;;;;;;;;;;5036072;28;20399;-88
2022/06/09 03:11:42;;;;;;;1.45;1.23;;;;;;;;;;5036080;28;20390;-87
2022/06/09 03:14:10;;;;;;;1.48;1.38;;;;;;;;;;5036307;28;20391;-87
2022/06/09 03:16:36;;;;;;;2.10;1.48;;;;;;;;;;5040483;28;20409;-88
2022/06/09 03:19:02;;;;;;;1.70;1.50;;;;;;;;;;5056785;28;20380;-87
2022/06/09 03:21:28;;;;;;;1.70;1.60;;;;;;;;;;5055818;28;20512;-88
2022/06/09 03:23:55;;;;;;;1.52;1.20;;;;;;;;;;5057961;28;20404;-88
2022/06/09 03:26:22;;;;;;;1.80;1.30;;;;;;;;;;5056177;28;20432;-88
2022/06/09 03:28:48;;;;;;;1.60;1.25;;;;;;;;;;5055840;28;20468;-87
2022/06/09 03:31:14;;;;;;;2.30;1.40;;;;;;;;;;5055446;28;20413;-87
2022/06/09 03:33:40;;;;;;;1.58;1.48;;;;;;;;;;5055713;28;20850;-87
2022/06/09 03:36:08;;;;;;;1.80;1.43;;;;;;;;;;5047667;28;20489;-87
2022/06/09 03:38:34;;;;;;;2.00;1.80;;;;;;;;;;5040533;28;20818;-87
2022/06/09 03:41:00;;;;;;;1.85;1.70;;;;;;;;;;5053327;28;20409;-87
2022/06/09 03:43:26;;;;;;;1.70;1.60;;;;;;;;;;5051679;28;20396;-87
2022/06/09 03:45:52;;;;;;;1.48;1.38;;;;;;;;;;5055362;28;20382;-87
2022/06/09 03:48:18;;;;;;;1.67;1.58;;;;;;;;;;5054265;28;20922;-88
2022/06/09 03:50:44;;;;;;;1.48;1.38;;;;;;;;;;5055362;28;20420;-89
2022/06/09 03:53:10;;;;;;;1.45;1.20;;;;;;;;;;5043860;28;20926;-88
2022/06/09 03:55:36;;;;;;;3.10;1.20;;;;;;;;;;5050933;28;20381;-88
2022/06/09 03:58:02;;;;;;;1.47;1.30;;;;;;;;;;5037127;28;20417;-88
2022/06/09 04:00:30;;;;;;;1.77;1.17;;;;;;;;;;5051913;28;20386;-88
2022/06/09 04:02:56;;;;;;;2.85;1.13;;;;;;;;;;5061493;28;20391;-89
2022/06/09 04:05:22;;;;;;;1.30;0.90;;;;;;;;;;5049395;28;20453;-88
2022/06/09 04:07:48;;;;;;;1.50;1.30;;;;;;;;;;5053230;28;20392;-88
2022/06/09 04:10:17;;;;;;;2.75;1.40;;;;;;;;;;5037067;28;20926;-89
2022/06/09 04:12:43;;;;;;;1.40;1.30;;;;;;;;;;5054560;28;20479;-88
2022/06/09 04:15:09;;;;;;;2.33;1.35;;;;;;;;;;5054921;28;20846;-87
2022/06/09 04:17:35;;;;;;;1.10;1.00;;;;;;;;;;5054542;28;20402;-89
2022/06/09 04:20:01;;;;;;;1.77;1.25;;;;;;;;;;5054700;28;20403;-88
2022/06/09 04:22:27;;;;;;;1.95;1.10;;;;;;;;;;5054377;28;20731;-88
2022/06/09 04:24:55;;;;;;;1.55;1.40;;;;;;;;;;5054424;28;20404;-89
2022/06/09 04:27:21;;;;;;;2.00;1.58;;;;;;;;;;5054499;28;20378;-89
2022/06/09 04:29:47;;;;;;;1.48;1.20;;;;;;;;;;5054094;28;20480;-88
2022/06/09 04:32:13;;;;;;;2.70;1.38;;;;;;;;;;5054454;28;20547;-87
2022/06/09 04:34:39;;;;;;;1.85;1.50;;;;;;;;;;5054047;28;20428;-87
2022/06/09 04:37:05;;;;;;;3.03;1.83;;;;;;;;;;5045485;28;20508;-85
2022/06/09 04:39:31;;;;;;;2.55;1.90;;;;;;;;;;5053288;28;20459;-85
2022/06/09 04:41:57;;;;;;;3.67;2.00;;;;;;;;;;5054173;28;20397;-86
2022/06/09 04:44:24;;;;;;;2.60;1.60;;;;;;;;;;5053897;28;20456;-86
2022/06/09 04:46:50;;;;;;;2.50;1.73;;;;;;;;;;5054174;28;20394;-87
2022/06/09 04:49:16;;;;;;;2.15;1.80;;;;;;;;;;5054020;28;20396;-87
2022/06/09 04:51:42;;;;;;;1.80;1.70;;;;;;;;;;5053977;28;20381;-87
2022/06/09 04:54:08;;;;;;;2.03;1.65;;;;;;;;;;5053908;28;20917;-87
2022/06/09 04:56:34;;;;;;;2.30;1.60;;;;;;;;;;5053861;28;20410;-87
2022/06/09 04:59:00;;;;;;;2.22;1.60;;;;;;;;;;5054176;28;20392;-87
2022/06/09 05:01:31;;;;;;;1.80;1.25;;;;;;;;;;5036016;28;20406;-87
2022/06/09 05:03:58;;;;;;;2.60;1.20;;;;;;;;;;5053408;28;20758;-88
2022/06/09 05:06:24;;;;;;;2.42;1.15;;;;;;;;;;5053655;28;20460;-87
2022/06/09 05:08:52;;;;;;;1.23;0.80;;;;;;;;;;5053524;28;20381;-87
2022/06/09 05:11:18;;;;;;;2.25;0.98;;;;;;;;;;5035459;28;20381;-88
2022/06/09 05:13:45;;;;;;;1.67;0.90;;;;;;;;;;5050141;28;20393;-88
2022/06/09 05:16:11;;;;;;;1.73;1.05;;;;;;;;;;5050295;28;20409;-88
2022/06/09 05:18:38;;;;;;;3.08;1.30;;;;;;;;;;5053378;28;20381;-87
2022/06/09 05:21:04;;;;;;;1.67;1.30;;;;;;;;;;5052434;28;20436;-87
2022/06/09 05:23:31;;;;;;;2.42;1.27;;;;;;;;;;5050348;28;20931;-87
2022/06/09 05:25:58;;;;;;;2.13;1.20;;;;;;;;;;5050467;28;20516;-87
2022/06/09 05:28:25;;;;;;;2.90;1.40;;;;;;;;;;5049938;28;20384;-85
2022/06/09 05:30:51;;;;;;;1.70;1.40;;;;;;;;;;5035090;28;20473;-85
2022/06/09 05:33:18;;;;;;;2.20;1.40;;;;;;;;;;5044664;28;20401;-86
2022/06/09 05:35:44;;;;;;;2.00;1.35;;;;;;;;;;5034962;28;20382;-86
2022/06/09 05:46:26;;;;;;;2.17;1.25;;;;;;;;;;5012732;28;20458;-87
2022/06/09 05:48:52;;;;;;;2.13;1.30;;;;;;;;;;5011930;28;20484;-88
2022/06/09 05:51:18;;;;;;;3.00;1.30;;;;;;;;;;5011218;28;20892;-87
2022/06/09 05:53:45;;;;;;;1.60;1.15;;;;;;;;;;5011797;28;20380;-84
2022/06/09 05:56:11;;;;;;;1.70;0.90;;;;;;;;;;5011119;28;20463;-86
2022/06/09 05:58:37;;;;;;;2.70;1.15;;;;;;;;;;5011758;28;20389;-87
2022/06/09 06:01:07;;;;;;;1.70;0.93;;;;;;;;;;5012265;28;20388;-86
2022/06/09 06:03:34;;;;;;;2.40;0.75;;;;;;;;;;5003626;28;20498;-87
2022/06/09 06:08:44;;;;;;;1.60;0.90;;;;;;;;;;5009599;28;20415;-85
2022/06/09 06:11:10;;;;;;;2.13;0.70;;;;;;;;;;5012671;28;20381;-86
2022/06/09 06:13:36;;;;;;;1.17;0.60;;;;;;;;;;5012313;28;20389;-88
2022/06/09 06:16:02;;;;;;;1.95;0.73;;;;;;;;;;5012142;28;20882;-89
2022/06/09 06:18:30;;;;;;;0.95;0.60;;;;;;;;;;5013008;28;20389;-89
2022/06/09 06:20:56;;;;;;;0.73;0.60;;;;;;;;;;5013184;28;20377;-89
2022/06/09 06:23:23;;;;;;;1.20;0.50;;;;;;;;;;5013129;28;20383;-89
2022/06/09 06:25:49;;;;;;;1.00;0.60;;;;;;;;;;5012029;28;20388;-87
2022/06/09 06:28:15;;;;;;;1.47;0.60;;;;;;;;;;5013249;28;20467;-87
2022/06/09 06:30:41;;;;;;;0.70;0.50;;;;;;;;;;5013025;28;20468;-87
2022/06/09 06:33:07;;;;;;;0.70;0.30;;;;;;;;;;5014781;28;20427;-85
2022/06/09 06:35:33;;;;;;;0.85;0.50;;;;;;;;;;5007071;28;20864;-86
2022/06/09 06:38:00;;;;;;;0.85;0.50;;;;;;;;;;5015139;28;20435;-86
2022/06/09 06:40:26;;;;;;;0.50;0.47;;;;;;;;;;5017008;28;20377;-86
2022/06/09 06:42:52;;;;;;;2.17;0.70;;;;;;;;;;5015094;28;20454;-86
2022/06/09 06:45:18;;;;;;;2.25;0.73;;;;;;;;;;5005468;28;20393;-86
2022/06/09 06:47:44;;;;;;;1.80;1.23;;;;;;;;;;5017287;28;20389;-86
2022/06/09 06:50:11;;;;;;;1.23;0.70;;;;;;;;;;5017521;28;20396;-86
2022/06/09 06:52:37;;;;;;;1.00;0.50;;;;;;;;;;5016438;28;20380;-86
2022/06/09 06:55:05;;;;;;;1.17;0.73;;;;;;;;;;5016895;28;20443;-86
2022/06/09 06:57:31;;;;;;;1.10;0.60;;;;;;;;;;5016311;28;20430;-86
2022/06/09 06:59:58;;;;;;;1.48;0.80;;;;;;;;;;5008153;28;20378;-87
2022/06/09 07:02:24;;;;;;;1.20;0.70;;;;;;;;;;5012571;28;20420;-87
2022/06/09 07:04:50;;;;;;;1.35;0.70;;;;;;;;;;5016532;28;20420;-86
2022/06/09 07:07:16;;;;;;;1.20;0.70;;;;;;;;;;5028750;28;20402;-86
2022/06/09 07:09:44;;;;;;;1.92;1.02;;;;;;;;;;5013755;28;20425;-87
2022/06/09 07:12:10;;;;;;;2.30;0.93;;;;;;;;;;5016122;28;20462;-87
2022/06/09 07:14:37;;;;;;;2.47;0.93;;;;;;;;;;5018668;28;20392;-87
2022/06/09 07:17:03;;;;;;;2.75;0.68;;;;;;;;;;5019194;28;20431;-87
2022/06/09 07:19:29;;;;;;;1.55;0.75;;;;;;;;;;5016009;28;20766;-86
2022/06/09 07:21:55;;;;;;;0.90;0.57;;;;;;;;;;5016513;28;20928;-86
2022/06/09 07:24:21;;;;;;;1.30;0.57;;;;;;;;;;5015967;28;20412;-86
2022/06/09 07:26:47;;;;;;;1.85;0.70;;;;;;;;;;5014847;28;20397;-86
2022/06/09 07:29:13;;;;;;;2.17;0.70;;;;;;;;;;5015986;28;20442;-88
2022/06/09 07:31:39;;;;;;;1.42;0.70;;;;;;;;;;5016429;28;20381;-88
2022/06/09 07:34:06;;;;;;;2.25;0.75;;;;;;;;;;5015479;28;20377;-87
2022/06/09 07:36:32;;;;;;;1.88;0.50;;;;;;;;;;5015977;28;20454;-87
2022/06/09 07:38:58;;;;;;;1.73;0.70;;;;;;;;;;5016344;28;20428;-90
2022/06/09 07:41:24;;;;;;;1.23;0.68;;;;;;;;;;5015919;28;20377;-88
2022/06/09 07:43:50;;;;;;;1.08;0.60;;;;;;;;;;5015130;28;20392;-89
2022/06/09 07:46:17;;;;;;;1.92;0.60;;;;;;;;;;5016362;28;20388;-89
2022/06/09 07:48:45;;;;;;;1.33;0.63;;;;;;;;;;5016426;28;20391;-89
2022/06/09 07:51:11;;;;;;;1.40;0.57;;;;;;;;;;5015933;28;20467;-88
2022/06/09 07:53:37;;;;;;;2.58;0.50;;;;;;;;;;5029348;28;20497;-89
2022/06/09 07:56:06;;;;;;;2.13;0.65;;;;;;;;;;5016847;28;20475;-89
2022/06/09 07:58:32;;;;;;;3.22;0.70;;;;;;;;;;5019779;28;20384;-89
2022/06/09 08:00:58;;;;;;;2.22;1.00;;;;;;;;;;5016256;28;20378;-91
2022/06/09 08:03:27;;;;;;;2.78;0.90;;;;;;;;;;5006021;28;20910;-90
2022/06/09 08:05:54;;;;;;;2.50;1.02;;;;;;;;;;5011345;28;20426;-90
2022/06/09 08:08:20;;;;;;;3.67;1.40;;;;;;;;;;5008902;28;20412;-90
2022/06/09 08:10:47;;;;;;;2.28;1.00;;;;;;;;;;5014676;28;20522;-88
2022/06/09 08:13:13;;;;;;;2.70;1.38;;;;;;;;;;5014346;28;20389;-88
2022/06/09 08:15:39;;;;;;;4.03;1.67;;;;;;;;;;5014768;28;20389;-87
2022/06/09 08:18:13;;;;;;;3.10;1.60;;;;;;;;;;5016855;28;20434;-89
2022/06/09 08:20:43;;;;;;;2.53;1.42;;;;;;;;;;5006104;28;20387;-90
2022/06/09 08:23:11;;;;;;;5.65;1.75;;;;;;;;;;5019657;28;20465;-89
2022/06/09 08:25:38;;;;;;;4.25;1.60;;;;;;;;;;5016093;28;20447;-89
2022/06/09 08:28:05;;;;;;;4.05;1.20;;;;;;;;;;5008794;28;20483;-89
2022/06/09 08:30:32;;;;;;;2.60;1.10;;;;;;;;;;5014047;28;20389;-90
2022/06/09 08:32:58;;;;;;;2.30;1.00;;;;;;;;;;5013509;28;20396;-86
2022/06/09 08:35:24;;;;;;;1.88;0.70;;;;;;;;;;5012546;28;20400;-88
2022/06/09 08:37:51;;;;;;;3.30;1.25;;;;;;;;;;5012841;28;20791;-87
2022/06/09 08:40:25;;;;;;;2.45;1.08;;;;;;;;;;5009762;28;20468;-87
2022/06/09 08:43:07;;;;;;;4.55;1.80;;;;;;;;;;5013482;28;20415;-86
2022/06/09 08:45:35;;;;;;;4.05;1.60;;;;;;;;;;5011123;28;20420;-88
2022/06/09 08:48:02;;;;;;;2.75;1.30;;;;;;;;;;5014006;28;20397;-87
2022/06/09 08:50:41;;;;;;;4.47;1.73;;;;;;;;;;5010575;28;20381;-87
2022/06/09 08:53:12;;;;;;;18.20;3.63;;;;;;;;;;5015499;28;20381;-90
2022/06/09 08:55:40;;;;;;;6.65;2.78;;;;;;;;;;5015673;28;20399;-89
2022/06/09 08:58:09;;;;;;;3.30;1.50;;;;;;;;;;5016211;28;20411;-90
2022/06/09 09:00:43;;;;;;;1.63;1.20;;;;;;;;;;5015169;28;20404;-90
2022/06/09 09:03:31;;;;;;;2.37;1.30;;;;;;;;;;5007771;28;20413;-89
2022/06/09 09:05:58;;;;;;;2.47;1.10;;;;;;;;;;5013039;28;20396;-88
2022/06/09 09:08:25;;;;;;;3.45;0.98;;;;;;;;;;5013431;28;20389;-88
2022/06/09 09:10:59;;;;;;;1.55;0.60;;;;;;;;;;5014021;28;20393;-87
2022/06/09 09:13:26;;;;;;;1.40;0.70;;;;;;;;;;5005388;28;20414;-90
2022/06/09 09:15:54;;;;;;;3.00;1.40;;;;;;;;;;5009574;28;20389;-90
2022/06/09 09:18:43;;;;;;;2.25;1.02;;;;;;;;;;5005107;28;20396;-89
2022/06/09 09:21:22;;;;;;;1.93;0.97;;;;;;;;;;5025537;28;20412;-90
2022/06/09 09:23:51;;;;;;;3.25;1.25;;;;;;;;;;5023960;28;20420;-89
2022/06/09 09:26:20;;;;;;;5.70;1.40;;;;;;;;;;5008677;28;20443;-89
2022/06/09 09:28:58;;;;;;;2.13;1.27;;;;;;;;;;5014387;28;20742;-89
2022/06/09 09:31:43;;;;;;;1.70;0.93;;;;;;;;;;5014057;28;20435;-90
2022/06/09 09:34:22;;;;;;;1.25;0.82;;;;;;;;;;5015250;28;20396;-91
2022/06/09 09:36:51;;;;;;;6.55;3.65;;;;;;;;;;5018784;28;20913;-89
2022/06/09 09:48:51;;;;;;;2.08;0.90;;;;;;;;;;4931967;29;20409;-92
2022/06/09 10:12:47;;;;;;;2.00;1.65;;;;;;;;;;5625232;23;20437;-90
2022/06/09 10:15:21;;;;;;;3.50;1.20;;;;;;;;;;5023422;28;20833;-90
2022/06/09 10:18:12;;;;;;;1.55;0.60;;;;;;;;;;5014914;28;20570;-91
2022/06/09 10:21:01;;;;;;;1.47;0.63;;;;;;;;;;5025943;28;20367;-88
2022/06/09 10:23:33;;;;;;;1.83;0.60;;;;;;;;;;5039262;28;20416;-88
2022/06/09 10:26:05;;;;;;;2.28;1.00;;;;;;;;;;5053100;28;20374;-90
2022/06/09 10:28:45;;;;;;;2.40;1.40;;;;;;;;;;5053794;28;20439;-90
2022/06/09 10:31:26;;;;;;;2.28;1.60;;;;;;;;;;5054059;28;20373;-88
2022/06/09 10:33:58;;;;;;;1.70;1.10;;;;;;;;;;5044777;28;20386;-88
2022/06/09 10:36:42;;;;;;;3.25;1.80;;;;;;;;;;5039926;28;20414;-88
2022/06/09 10:39:14;;;;;;;3.08;1.77;;;;;;;;;;5040466;28;20853;-90
2022/06/09 10:41:47;;;;;;;4.40;2.20;;;;;;;;;;5047373;28;20385;-89
2022/06/09 10:44:30;;;;;;;2.40;1.27;;;;;;;;;;5042339;28;20375;-89
2022/06/09 10:55:37;;;;;;;2.40;0.95;;;;;;;;;;5051845;28;20385;-91
2022/06/09 10:58:16;;;;;;;2.80;1.00;;;;;;;;;;5040364;28;20397;-89
2022/06/09 11:00:45;;;;;;;3.40;0.77;;;;;;;;;;5036012;28;20363;-89
2022/06/09 11:03:14;;;;;;;2.67;0.93;;;;;;;;;;5030345;28;20375;-89
2022/06/09 11:05:43;;;;;;;1.67;0.70;;;;;;;;;;5029403;28;20375;-90
2022/06/09 11:08:16;;;;;;;1.30;0.70;;;;;;;;;;5052572;28;20424;-88
2022/06/09 11:10:41;;;;;;;2.55;0.70;;;;;;;;;;5052054;28;20409;-89
2022/06/09 11:13:21;;;;;;;3.65;1.02;;;;;;;;;;5028164;28;20425;-88
2022/06/09 11:15:56;;;;;;;3.17;1.10;;;;;;;;;;5033185;28;20393;-89
2022/06/09 11:18:28;;;;;;;5.80;2.03;;;;;;;;;;5053875;28;20894;-88
2022/06/09 11:21:15;;;;;;;3.42;1.60;;;;;;;;;;5054380;28;20416;-89
2022/06/09 11:23:41;;;;;;;2.67;0.88;;;;;;;;;;5055421;28;20369;-87
2022/06/09 11:26:20;;;;;;;3.20;0.90;;;;;;;;;;5055932;28;20381;-89
2022/06/09 11:28:49;;;;;;;2.67;0.70;;;;;;;;;;5055771;28;20413;-91
2022/06/09 11:31:15;;;;;;;2.20;0.70;;;;;;;;;;5054259;28;20435;-88
2022/06/09 11:33:56;;;;;;;2.28;0.80;;;;;;;;;;5048812;28;20835;-89
2022/06/09 11:36:25;;;;;;;1.85;0.60;;;;;;;;;;5042277;28;20411;-90
2022/06/09 11:38:54;;;;;;;2.60;0.60;;;;;;;;;;5055242;28;20444;-88
2022/06/09 11:41:35;;;;;;;1.92;0.60;;;;;;;;;;5054320;28;20411;-92
2022/06/09 11:44:08;;;;;;;2.23;0.70;;;;;;;;;;5053479;28;20397;-88
2022/06/09 11:46:36;;;;;;;2.58;0.73;;;;;;;;;;5032954;28;20864;-88
2022/06/09 11:49:05;;;;;;;1.45;0.70;;;;;;;;;;5035706;28;20874;-87
2022/06/09 11:51:32;;;;;;;3.10;1.00;;;;;;;;;;5034978;28;20472;-88
2022/06/09 11:54:02;;;;;;;2.00;0.80;;;;;;;;;;5045443;28;20393;-88
2022/06/09 11:56:36;;;;;;;2.08;0.82;;;;;;;;;;5031814;28;20896;-90
2022/06/09 11:59:15;;;;;;;2.25;0.80;;;;;;;;;;5051448;28;20463;-88
2022/06/09 12:01:41;;;;;;;1.43;0.60;;;;;;;;;;5037869;28;20865;-88
2022/06/09 12:04:26;;;;;;;1.52;0.50;;;;;;;;;;5043347;28;20398;-86
2022/06/09 12:07:11;;;;;;;2.30;0.60;;;;;;;;;;5055025;28;20519;-88
2022/06/09 12:09:37;;;;;;;3.83;0.80;;;;;;;;;;5040719;28;20377;-89
2022/06/09 12:12:23;;;;;;;3.28;0.93;;;;;;;;;;5054481;28;20392;-87
2022/06/09 12:14:49;;;;;;;3.00;1.27;;;;;;;;;;5049198;28;20763;-85
2022/06/09 12:17:20;;;;;;;3.70;1.10;;;;;;;;;;5040363;28;20414;-87
2022/06/09 12:19:57;;;;;;;2.88;1.15;;;;;;;;;;5053747;28;20381;-87
2022/06/09 12:22:42;;;;;;;3.92;1.15;;;;;;;;;;5054447;28;20370;-88
2022/06/09 12:25:11;;;;;;;3.83;0.98;;;;;;;;;;5054573;28;20373;-87
2022/06/09 12:27:37;;;;;;;3.17;1.13;;;;;;;;;;5054401;28;20405;-86
2022/06/09 12:30:03;;;;;;;3.83;1.07;;;;;;;;;;5054256;28;20862;-88
2022/06/09 12:32:29;;;;;;;4.68;0.90;;;;;;;;;;5054199;28;20374;-88
2022/06/09 12:34:56;;;;;;;1.92;0.80;;;;;;;;;;5041503;28;20932;-87
2022/06/09 12:37:25;;;;;;;2.55;1.10;;;;;;;;;;5045344;28;20401;-88
2022/06/09 12:39:59;;;;;;;2.90;0.70;;;;;;;;;;5038207;28;20892;-89
2022/06/09 12:42:27;;;;;;;3.13;0.80;;;;;;;;;;5044110;28;20381;-86
2022/06/09 12:45:06;;;;;;;2.03;0.80;;;;;;;;;;5053638;28;20382;-87
2022/06/09 12:47:33;;;;;;;2.88;0.93;;;;;;;;;;5043940;28;20383;-87
2022/06/09 12:50:00;;;;;;;2.83;1.00;;;;;;;;;;5049367;28;20385;-87
2022/06/09 12:52:39;;;;;;;3.38;0.95;;;;;;;;;;5035355;28;20488;-89
2022/06/09 12:55:14;;;;;;;2.47;1.00;;;;;;;;;;5036462;28;20437;-89
2022/06/09 12:57:46;;;;;;;3.07;1.10;;;;;;;;;;5037063;28;20406;-88
2022/06/09 13:00:21;;;;;;;2.85;0.90;;;;;;;;;;5032663;28;20474;-87
2022/06/09 13:02:48;;;;;;;3.40;0.90;;;;;;;;;;5039116;28;20414;-87
2022/06/09 13:05:17;;;;;;;2.80;0.93;;;;;;;;;;5029875;28;20386;-88
2022/06/09 13:08:09;;;;;;;2.67;0.80;;;;;;;;;;5032321;28;20966;-89
2022/06/09 13:10:38;;;;;;;3.00;1.08;;;;;;;;;;5026432;28;20406;-89
2022/06/09 13:13:14;;;;;;;2.35;0.75;;;;;;;;;;5027345;28;20403;-89
2022/06/09 13:15:40;;;;;;;2.13;0.60;;;;;;;;;;5031677;28;20386;-88
2022/06/09 13:18:12;;;;;;;1.27;0.50;;;;;;;;;;5048327;28;20936;-88
2022/06/09 13:20:39;;;;;;;1.30;0.40;;;;;;;;;;5033091;28;20383;-88
2022/06/09 13:23:06;;;;;;;1.30;0.40;;;;;;;;;;5048009;28;20732;-88
2022/06/09 13:25:33;;;;;;;1.93;0.50;;;;;;;;;;5035801;28;20932;-88
2022/06/09 13:28:00;;;;;;;1.50;0.50;;;;;;;;;;5053042;28;20389;-88
2022/06/09 13:30:31;;;;;;;1.15;0.50;;;;;;;;;;5035315;28;20383;-89
2022/06/09 13:32:58;;;;;;;1.92;0.55;;;;;;;;;;5031457;28;20427;-89
2022/06/09 13:35:27;;;;;;;1.58;0.57;;;;;;;;;;5038300;28;20390;-89
2022/06/09 13:38:02;;;;;;;2.53;1.60;;;;;;;;;;5033934;28;20422;-88
2022/06/09 13:40:39;;;;;;;2.03;0.60;;;;;;;;;;5052278;28;20459;-88
2022/06/09 13:43:14;;;;;;;1.83;0.65;;;;;;;;;;5042801;28;20385;-89
2022/06/09 13:45:40;;;;;;;2.28;0.60;;;;;;;;;;5031306;28;20447;-88
2022/06/09 13:48:07;;;;;;;2.13;0.73;;;;;;;;;;5033540;28;20402;-87
2022/06/09 13:50:34;;;;;;;1.88;0.50;;;;;;;;;;5039700;28;20714;-89
2022/06/09 13:53:22;;;;;;;1.95;0.70;;;;;;;;;;5031114;28;20385;-87
2022/06/09 13:55:48;;;;;;;1.42;0.60;;;;;;;;;;5042246;28;20748;-87
2022/06/09 13:58:14;;;;;;;3.08;0.73;;;;;;;;;;5040928;28;20420;-87
2022/06/09 14:00:47;;;;;;;1.90;0.90;;;;;;;;;;5036599;28;20379;-86
2022/06/09 14:03:16;;;;;;;3.45;1.50;;;;;;;;;;5034793;28;20402;-84
2022/06/09 14:05:44;;;;;;;2.97;0.82;;;;;;;;;;5048006;28;20374;-85
2022/06/09 14:08:14;;;;;;;1.42;0.60;;;;;;;;;;5052545;28;20390;-87
2022/06/09 14:10:40;;;;;;;3.17;1.10;;;;;;;;;;5050537;28;20413;-87
2022/06/09 14:13:06;;;;;;;3.35;1.08;;;;;;;;;;5052353;28;20445;-87
2022/06/09 14:15:33;;;;;;;2.07;0.90;;;;;;;;;;5052393;28;20498;-85
2022/06/09 14:17:59;;;;;;;2.88;0.75;;;;;;;;;;5052204;28;20500;-86
2022/06/09 14:20:28;;;;;;;2.38;0.80;;;;;;;;;;5051285;28;20847;-85
2022/06/09 14:22:55;;;;;;;1.90;0.90;;;;;;;;;;5050763;28;20379;-87
2022/06/09 14:25:21;;;;;;;2.80;0.80;;;;;;;;;;5043212;28;20507;-85
2022/06/09 14:27:47;;;;;;;2.25;0.82;;;;;;;;;;5042328;28;20399;-86
2022/06/09 14:30:15;;;;;;;1.45;0.80;;;;;;;;;;5053014;28;20377;-86
2022/06/09 14:32:41;;;;;;;1.70;0.80;;;;;;;;;;5053320;28;20378;-86
2022/06/09 14:35:07;;;;;;;1.73;0.70;;;;;;;;;;5053360;28;20413;-86
2022/06/09 14:37:34;;;;;;;2.40;0.70;;;;;;;;;;5043872;28;20405;-85
2022/06/09 14:40:00;;;;;;;4.30;1.02;;;;;;;;;;5038230;28;20396;-86
2022/06/09 14:42:26;;;;;;;4.97;1.40;;;;;;;;;;5052258;28;20435;-86
2022/06/09 14:44:52;;;;;;;3.00;0.73;;;;;;;;;;5050907;28;20377;-86
2022/06/09 14:47:21;;;;;;;2.28;0.88;;;;;;;;;;5052045;28;20434;-86
2022/06/09 14:49:47;;;;;;;3.35;1.10;;;;;;;;;;5052239;28;20870;-86
2022/06/09 14:52:16;;;;;;;3.10;0.90;;;;;;;;;;5053284;28;20389;-87
2022/06/09 14:54:42;;;;;;;3.53;1.10;;;;;;;;;;5051421;28;20757;-86
2022/06/09 14:57:10;;;;;;;2.85;1.10;;;;;;;;;;5041923;28;20403;-86
2022/06/09 14:59:36;;;;;;;2.22;0.82;;;;;;;;;;5055826;28;20377;-85
2022/06/09 15:02:03;;;;;;;3.28;1.00;;;;;;;;;;5055871;28;20384;-86
2022/06/09 15:04:29;;;;;;;3.08;0.90;;;;;;;;;;5054426;28;20866;-86
2022/06/09 15:06:55;;;;;;;1.88;0.80;;;;;;;;;;5055728;28;20378;-86
2022/06/09 15:09:24;;;;;;;3.00;0.98;;;;;;;;;;5050593;28;20381;-86
2022/06/09 15:11:51;;;;;;;2.88;0.88;;;;;;;;;;5024782;28;20393;-86
2022/06/09 15:14:17;;;;;;;2.55;0.90;;;;;;;;;;5046037;28;20789;-88
2022/06/09 15:16:43;;;;;;;2.50;1.20;;;;;;;;;;5042582;28;20415;-86
2022/06/09 15:19:09;;;;;;;3.15;1.20;;;;;;;;;;5035659;28;20375;-86
2022/06/09 15:21:35;;;;;;;2.08;1.10;;;;;;;;;;5055419;28;20898;-86
2022/06/09 15:24:02;;;;;;;3.60;1.03;;;;;;;;;;5055431;28;20381;-87
2022/06/09 15:26:29;;;;;;;3.25;0.90;;;;;;;;;;5055420;28;20385;-86
2022/06/09 15:28:55;;;;;;;1.77;0.70;;;;;;;;;;5055761;28;20867;-87
2022/06/09 15:31:21;;;;;;;2.38;0.95;;;;;;;;;;5055508;28;20389;-86
2022/06/09 15:33:47;;;;;;;1.85;0.75;;;;;;;;;;5055498;28;20393;-87
2022/06/09 15:36:16;;;;;;;3.05;0.90;;;;;;;;;;5040144;28;20391;-86
2022/06/09 15:38:42;;;;;;;1.73;0.75;;;;;;;;;;5055022;28;20392;-85
2022/06/09 15:41:08;;;;;;;1.85;0.90;;;;;;;;;;5055485;28;20827;-85
2022/06/09 15:43:35;;;;;;;2.40;1.00;;;;;;;;;;5054753;28;20377;-85